Time;durP1;ratioP1;P1;durP2;ratioP2;P2;SDS_P1;SDS_P2;PMS_P1;PMS_P2;Temp;Humidity;BMP_temperature;BMP_pressure;BME280_temperature;BME280_humidity;BME280_pressure;Samples;Min_cycle;Max_cycle;Signal;HPM_P1;HPM_P2
2022/03/28 00:00:10;;;;;;;14.75;8.85;;;;;;;;;;4944622;29;20042;-72
2022/03/28 00:02:40;;;;;;;14.23;8.13;;;;;;;;;;4943591;28;20047;-71
2022/03/28 00:05:06;;;;;;;15.35;8.15;;;;;;;;;;4927358;28;20043;-71
2022/03/28 00:07:32;;;;;;;21.52;9.25;;;;;;;;;;4944788;29;20043;-71
2022/03/28 00:09:58;;;;;;;17.20;8.77;;;;;;;;;;4944396;29;20046;-72
2022/03/28 00:12:24;;;;;;;21.70;8.85;;;;;;;;;;4944559;29;20094;-71
2022/03/28 00:14:49;;;;;;;20.10;9.65;;;;;;;;;;4943645;28;20067;-72
2022/03/28 00:17:15;;;;;;;23.60;9.85;;;;;;;;;;4944014;28;20113;-71
2022/03/28 00:19:40;;;;;;;24.30;9.70;;;;;;;;;;4944393;29;20397;-72
2022/03/28 00:22:06;;;;;;;20.38;9.55;;;;;;;;;;4926652;29;20061;-71
2022/03/28 00:24:31;;;;;;;23.10;10.05;;;;;;;;;;4943885;28;20039;-71
2022/03/28 00:26:57;;;;;;;20.52;9.40;;;;;;;;;;4943981;28;20062;-71
2022/03/28 00:29:22;;;;;;;16.77;8.70;;;;;;;;;;4944333;29;20043;-70
2022/03/28 00:31:48;;;;;;;15.98;8.73;;;;;;;;;;4943440;29;20507;-71
2022/03/28 00:34:15;;;;;;;18.83;8.93;;;;;;;;;;4944408;29;20121;-71
2022/03/28 00:36:41;;;;;;;18.63;7.68;;;;;;;;;;4943504;28;20035;-71
2022/03/28 00:39:07;;;;;;;22.17;8.07;;;;;;;;;;4943995;28;20035;-71
2022/03/28 00:41:32;;;;;;;14.93;7.03;;;;;;;;;;4943307;29;20048;-72
2022/03/28 00:43:59;;;;;;;14.43;6.68;;;;;;;;;;4943851;29;20050;-70
2022/03/28 00:46:25;;;;;;;21.10;6.20;;;;;;;;;;4943089;28;20046;-70
2022/03/28 00:48:52;;;;;;;13.25;6.70;;;;;;;;;;4943481;28;20042;-71
2022/03/28 00:51:19;;;;;;;10.27;6.13;;;;;;;;;;4943502;29;20069;-70
2022/03/28 00:53:46;;;;;;;12.65;6.53;;;;;;;;;;4943587;29;20086;-71
2022/03/28 00:56:14;;;;;;;14.13;7.28;;;;;;;;;;4943543;29;20118;-71
2022/03/28 00:58:41;;;;;;;15.73;7.35;;;;;;;;;;4942932;28;20039;-70
2022/03/28 01:01:09;;;;;;;12.65;6.97;;;;;;;;;;4943365;28;20035;-71
2022/03/28 01:03:35;;;;;;;15.70;6.60;;;;;;;;;;4943478;29;20031;-71
2022/03/28 01:06:00;;;;;;;15.20;7.00;;;;;;;;;;4943318;29;20042;-71
2022/03/28 01:08:26;;;;;;;20.90;8.27;;;;;;;;;;4942976;29;20036;-71
2022/03/28 01:10:55;;;;;;;14.80;7.53;;;;;;;;;;4942900;28;20047;-71
2022/03/28 01:13:22;;;;;;;15.60;7.32;;;;;;;;;;4942703;29;20101;-71
2022/03/28 01:15:47;;;;;;;16.05;7.68;;;;;;;;;;4926306;29;20495;-71
2022/03/28 01:18:14;;;;;;;12.45;7.65;;;;;;;;;;4943493;29;20043;-71
2022/03/28 01:20:40;;;;;;;12.55;7.43;;;;;;;;;;4942539;28;20038;-71
2022/03/28 01:23:07;;;;;;;18.67;7.30;;;;;;;;;;4938128;28;20045;-71
2022/03/28 01:25:33;;;;;;;16.65;7.72;;;;;;;;;;4942719;28;20690;-71
2022/03/28 01:28:00;;;;;;;19.15;7.40;;;;;;;;;;4943298;28;20497;-71
2022/03/28 01:30:28;;;;;;;18.08;8.23;;;;;;;;;;4942721;29;20122;-71
2022/03/28 01:32:55;;;;;;;19.13;8.60;;;;;;;;;;4942859;28;20047;-70
2022/03/28 01:35:25;;;;;;;18.45;8.52;;;;;;;;;;4925448;29;20043;-71
2022/03/28 01:37:50;;;;;;;16.13;8.10;;;;;;;;;;4943077;29;20042;-71
2022/03/28 01:40:15;;;;;;;18.73;8.07;;;;;;;;;;4943122;29;20043;-71
2022/03/28 01:42:41;;;;;;;18.73;7.35;;;;;;;;;;4942570;28;20145;-71
2022/03/28 01:45:07;;;;;;;13.30;7.32;;;;;;;;;;4942479;28;20045;-71
2022/03/28 01:47:32;;;;;;;23.38;7.65;;;;;;;;;;4942503;29;20070;-70
2022/03/28 01:49:57;;;;;;;15.77;7.07;;;;;;;;;;4942345;29;20030;-71
2022/03/28 01:52:23;;;;;;;15.02;7.75;;;;;;;;;;4930092;29;20039;-71
2022/03/28 01:54:48;;;;;;;14.88;8.07;;;;;;;;;;4931956;28;20067;-71
2022/03/28 01:57:14;;;;;;;26.02;8.27;;;;;;;;;;4949376;29;20027;-70
2022/03/28 01:59:39;;;;;;;13.48;8.05;;;;;;;;;;4949295;29;20090;-71
2022/03/28 02:02:04;;;;;;;15.65;8.02;;;;;;;;;;4949078;29;20098;-70
2022/03/28 02:04:32;;;;;;;14.93;8.10;;;;;;;;;;4949131;28;20161;-70
2022/03/28 02:06:57;;;;;;;24.65;7.68;;;;;;;;;;4948793;28;20043;-70
2022/03/28 02:09:23;;;;;;;12.00;7.78;;;;;;;;;;4949343;28;20034;-71
2022/03/28 02:11:48;;;;;;;12.60;7.80;;;;;;;;;;4948597;29;20461;-70
2022/03/28 02:14:14;;;;;;;17.33;8.25;;;;;;;;;;4948480;28;20039;-70
2022/03/28 02:16:39;;;;;;;17.10;8.18;;;;;;;;;;4948977;28;20477;-70
2022/03/28 02:19:04;;;;;;;14.80;7.95;;;;;;;;;;4948995;28;20045;-71
2022/03/28 02:21:30;;;;;;;17.65;8.52;;;;;;;;;;4948791;29;20031;-70
2022/03/28 02:23:55;;;;;;;19.00;8.27;;;;;;;;;;4949424;28;20809;-71
2022/03/28 02:26:21;;;;;;;31.05;9.18;;;;;;;;;;4948117;28;20043;-70
2022/03/28 02:28:47;;;;;;;15.55;7.72;;;;;;;;;;4948939;28;20034;-71
2022/03/28 02:31:13;;;;;;;18.52;7.32;;;;;;;;;;4948619;29;20039;-72
2022/03/28 02:33:38;;;;;;;25.17;8.07;;;;;;;;;;4948433;28;20101;-70
2022/03/28 02:36:05;;;;;;;17.55;7.30;;;;;;;;;;4948781;29;20039;-70
2022/03/28 02:38:31;;;;;;;14.70;8.18;;;;;;;;;;4948385;28;20038;-71
2022/03/28 02:40:56;;;;;;;14.65;8.15;;;;;;;;;;4948836;28;20069;-71
2022/03/28 02:43:23;;;;;;;14.13;8.23;;;;;;;;;;4949384;29;20109;-71
2022/03/28 02:45:48;;;;;;;22.33;8.75;;;;;;;;;;4948812;29;20159;-70
2022/03/28 02:48:14;;;;;;;16.33;7.15;;;;;;;;;;4948327;28;20047;-71
2022/03/28 02:50:39;;;;;;;17.15;7.53;;;;;;;;;;4948605;28;20035;-70
2022/03/28 02:53:05;;;;;;;21.35;8.85;;;;;;;;;;4950769;29;20035;-71
2022/03/28 02:55:30;;;;;;;15.27;7.80;;;;;;;;;;4949721;28;20046;-71
2022/03/28 02:57:56;;;;;;;14.18;8.02;;;;;;;;;;4949136;29;20042;-71
2022/03/28 03:00:21;;;;;;;15.80;7.30;;;;;;;;;;4948144;28;20042;-71
2022/03/28 03:02:47;;;;;;;16.17;8.40;;;;;;;;;;4945957;28;20123;-71
2022/03/28 03:05:12;;;;;;;22.52;9.25;;;;;;;;;;4928742;29;20035;-71
2022/03/28 03:07:38;;;;;;;14.07;7.60;;;;;;;;;;4945748;29;20620;-72
2022/03/28 03:10:05;;;;;;;18.50;7.05;;;;;;;;;;4944772;28;20062;-71
2022/03/28 03:12:31;;;;;;;18.15;8.23;;;;;;;;;;4945332;28;20053;-71
2022/03/28 03:14:57;;;;;;;17.88;9.07;;;;;;;;;;4945027;29;20396;-71
2022/03/28 03:17:22;;;;;;;19.33;8.75;;;;;;;;;;4944904;29;20507;-71
2022/03/28 03:19:48;;;;;;;18.27;8.68;;;;;;;;;;4945154;29;20049;-71
2022/03/28 03:22:14;;;;;;;20.52;7.88;;;;;;;;;;4940765;28;20054;-71
2022/03/28 03:24:40;;;;;;;15.50;7.88;;;;;;;;;;4944980;28;20058;-71
2022/03/28 03:27:06;;;;;;;14.30;7.22;;;;;;;;;;4945070;28;20102;-71
2022/03/28 03:29:32;;;;;;;18.65;8.63;;;;;;;;;;4945527;28;20043;-72
2022/03/28 03:31:57;;;;;;;15.88;8.10;;;;;;;;;;4941326;28;20165;-71
2022/03/28 03:34:23;;;;;;;21.05;8.55;;;;;;;;;;4944423;28;20714;-71
2022/03/28 03:36:48;;;;;;;22.20;8.50;;;;;;;;;;4944889;28;20039;-71
2022/03/28 03:39:13;;;;;;;17.17;8.38;;;;;;;;;;4945113;29;20113;-71
2022/03/28 03:41:39;;;;;;;14.52;7.75;;;;;;;;;;4944972;29;20591;-72
2022/03/28 03:44:06;;;;;;;18.17;8.20;;;;;;;;;;4944110;28;20057;-71
2022/03/28 03:46:32;;;;;;;16.27;8.07;;;;;;;;;;4944957;28;20043;-71
2022/03/28 03:48:58;;;;;;;21.23;9.00;;;;;;;;;;4944724;29;20035;-71
2022/03/28 03:51:23;;;;;;;17.38;8.27;;;;;;;;;;4944904;29;20035;-71
2022/03/28 03:53:49;;;;;;;17.15;7.97;;;;;;;;;;4943072;29;20051;-71
2022/03/28 03:56:15;;;;;;;16.73;8.55;;;;;;;;;;4945089;28;20105;-70
2022/03/28 03:58:40;;;;;;;18.73;8.85;;;;;;;;;;4944385;29;20159;-71
2022/03/28 04:01:08;;;;;;;17.70;9.02;;;;;;;;;;4944299;29;20433;-71
2022/03/28 04:03:35;;;;;;;23.35;8.77;;;;;;;;;;4927224;29;20043;-71
2022/03/28 04:06:01;;;;;;;20.50;9.23;;;;;;;;;;4943472;28;20089;-71
2022/03/28 04:08:27;;;;;;;22.63;9.05;;;;;;;;;;4944816;28;20412;-72
2022/03/28 04:10:53;;;;;;;18.08;9.73;;;;;;;;;;4944388;29;20066;-72
2022/03/28 04:13:19;;;;;;;22.98;10.57;;;;;;;;;;4944667;28;20031;-72
2022/03/28 04:15:44;;;;;;;17.55;8.75;;;;;;;;;;4943382;28;20050;-70
2022/03/28 04:18:10;;;;;;;21.98;8.70;;;;;;;;;;4944335;28;20034;-71
2022/03/28 04:20:35;;;;;;;21.05;9.10;;;;;;;;;;4944261;29;20070;-71
2022/03/28 04:23:01;;;;;;;21.50;10.48;;;;;;;;;;4926856;29;20043;-72
2022/03/28 04:25:27;;;;;;;20.20;8.93;;;;;;;;;;4944429;29;20093;-72
2022/03/28 04:27:53;;;;;;;17.75;8.93;;;;;;;;;;4943402;28;20043;-71
2022/03/28 04:30:18;;;;;;;18.08;9.35;;;;;;;;;;4944278;28;20035;-72
2022/03/28 04:32:44;;;;;;;21.30;9.07;;;;;;;;;;4943984;29;20043;-71
2022/03/28 04:35:11;;;;;;;18.35;10.00;;;;;;;;;;4944354;29;20038;-71
2022/03/28 04:37:38;;;;;;;16.38;8.70;;;;;;;;;;4943149;29;20043;-72
2022/03/28 04:40:05;;;;;;;19.98;9.80;;;;;;;;;;4926741;28;20094;-71
2022/03/28 04:42:31;;;;;;;20.83;9.30;;;;;;;;;;4944158;29;20043;-71
2022/03/28 04:44:57;;;;;;;27.77;9.68;;;;;;;;;;4943714;29;20098;-71
2022/03/28 04:47:22;;;;;;;24.02;8.65;;;;;;;;;;4942616;29;20043;-71
2022/03/28 04:49:48;;;;;;;20.88;9.82;;;;;;;;;;4925205;28;20125;-71
2022/03/28 04:52:13;;;;;;;23.73;9.93;;;;;;;;;;4941950;28;20046;-71
2022/03/28 04:54:38;;;;;;;18.83;9.13;;;;;;;;;;4944236;29;20073;-71
2022/03/28 04:57:04;;;;;;;18.20;9.68;;;;;;;;;;4942811;29;20590;-71
2022/03/28 04:59:30;;;;;;;14.98;8.52;;;;;;;;;;4942994;28;20035;-70
2022/03/28 05:01:56;;;;;;;20.33;8.98;;;;;;;;;;4942761;28;20093;-71
2022/03/28 05:04:22;;;;;;;17.63;8.98;;;;;;;;;;4943935;29;20037;-71
2022/03/28 05:06:47;;;;;;;16.40;8.38;;;;;;;;;;4943567;29;20560;-71
2022/03/28 05:09:13;;;;;;;18.92;9.48;;;;;;;;;;4943294;29;20034;-72
2022/03/28 05:11:38;;;;;;;19.20;8.95;;;;;;;;;;4942769;28;20035;-71
2022/03/28 05:14:04;;;;;;;15.85;8.32;;;;;;;;;;4941203;28;20559;-70
2022/03/28 05:16:30;;;;;;;19.63;8.88;;;;;;;;;;4940765;29;20127;-71
2022/03/28 05:18:55;;;;;;;15.15;9.27;;;;;;;;;;4940950;29;20099;-70
2022/03/28 05:21:20;;;;;;;19.02;8.77;;;;;;;;;;4941320;29;20047;-72
2022/03/28 05:23:46;;;;;;;15.77;8.35;;;;;;;;;;4942524;28;20555;-70
2022/03/28 05:26:11;;;;;;;19.25;7.93;;;;;;;;;;4941248;28;20047;-71
2022/03/28 05:28:37;;;;;;;16.17;8.05;;;;;;;;;;4942687;29;20062;-71
2022/03/28 05:31:03;;;;;;;12.98;7.47;;;;;;;;;;4941350;28;20413;-71
2022/03/28 05:33:28;;;;;;;19.83;8.35;;;;;;;;;;4942442;28;20042;-71
2022/03/28 05:35:54;;;;;;;22.13;8.63;;;;;;;;;;4942994;28;20158;-71
2022/03/28 05:38:20;;;;;;;18.75;8.15;;;;;;;;;;4942317;29;20039;-72
2022/03/28 05:40:46;;;;;;;23.55;9.02;;;;;;;;;;4942593;29;20035;-70
2022/03/28 05:43:11;;;;;;;16.67;8.88;;;;;;;;;;4942617;29;20038;-72
2022/03/28 05:45:37;;;;;;;18.23;8.98;;;;;;;;;;4942975;28;20050;-71
2022/03/28 05:48:03;;;;;;;17.92;9.00;;;;;;;;;;4943022;28;20114;-71
2022/03/28 05:50:29;;;;;;;18.80;9.35;;;;;;;;;;4943107;29;20058;-71
2022/03/28 05:52:54;;;;;;;20.08;8.50;;;;;;;;;;4941599;29;20114;-71
2022/03/28 05:55:21;;;;;;;22.05;9.48;;;;;;;;;;4942543;28;20043;-70
2022/03/28 05:57:46;;;;;;;26.02;9.73;;;;;;;;;;4942892;28;20715;-70
2022/03/28 06:00:14;;;;;;;25.77;8.93;;;;;;;;;;4942980;29;20093;-70
2022/03/28 06:02:43;;;;;;;21.90;8.95;;;;;;;;;;4944052;29;20047;-70
2022/03/28 06:05:10;;;;;;;18.88;8.18;;;;;;;;;;4942575;29;20046;-70
2022/03/28 06:07:36;;;;;;;19.65;8.30;;;;;;;;;;4943121;28;20035;-70
2022/03/28 06:10:03;;;;;;;15.75;9.00;;;;;;;;;;4942929;28;20038;-70
2022/03/28 06:12:28;;;;;;;13.48;7.47;;;;;;;;;;4942748;29;20050;-70
2022/03/28 06:14:53;;;;;;;18.17;8.05;;;;;;;;;;4942716;29;20043;-70
2022/03/28 06:17:23;;;;;;;19.23;7.80;;;;;;;;;;4942496;28;20077;-70
2022/03/28 06:19:48;;;;;;;18.25;9.40;;;;;;;;;;4943302;28;20093;-70
2022/03/28 06:22:14;;;;;;;14.50;8.48;;;;;;;;;;4942781;29;20039;-70
2022/03/28 06:24:39;;;;;;;17.05;8.90;;;;;;;;;;4926192;29;20050;-70
2022/03/28 06:27:05;;;;;;;17.05;7.78;;;;;;;;;;4948183;29;20040;-70
2022/03/28 06:29:30;;;;;;;20.08;8.50;;;;;;;;;;4946749;28;20128;-69
2022/03/28 06:31:55;;;;;;;12.95;8.50;;;;;;;;;;4942748;28;20409;-70
2022/03/28 06:34:21;;;;;;;16.75;8.48;;;;;;;;;;4942447;29;20042;-69
2022/03/28 06:36:47;;;;;;;13.75;7.75;;;;;;;;;;4943117;28;20043;-70
2022/03/28 06:39:13;;;;;;;15.73;7.93;;;;;;;;;;4945144;28;20042;-70
2022/03/28 06:41:39;;;;;;;13.32;7.88;;;;;;;;;;4945927;28;20067;-70
2022/03/28 06:44:07;;;;;;;18.55;7.72;;;;;;;;;;4945883;29;20570;-70
2022/03/28 06:46:33;;;;;;;11.38;7.75;;;;;;;;;;4946293;29;20777;-70
2022/03/28 06:48:58;;;;;;;17.77;8.35;;;;;;;;;;4946272;29;20677;-70
2022/03/28 06:51:24;;;;;;;17.88;7.85;;;;;;;;;;4945229;28;20050;-69
2022/03/28 06:53:49;;;;;;;15.23;8.05;;;;;;;;;;4946203;28;20035;-70
2022/03/28 06:56:16;;;;;;;14.00;7.65;;;;;;;;;;4945991;29;20074;-70
2022/03/28 06:58:42;;;;;;;15.48;8.10;;;;;;;;;;4945265;29;20093;-70
2022/03/28 07:01:10;;;;;;;13.00;7.88;;;;;;;;;;4944834;28;20035;-70
2022/03/28 07:03:35;;;;;;;14.32;7.90;;;;;;;;;;4945210;28;20118;-69
2022/03/28 07:06:01;;;;;;;15.50;8.15;;;;;;;;;;4945758;29;20476;-69
2022/03/28 07:08:26;;;;;;;19.42;8.43;;;;;;;;;;4945631;29;20047;-70
2022/03/28 07:10:53;;;;;;;11.63;7.15;;;;;;;;;;4928573;29;20039;-69
2022/03/28 07:13:18;;;;;;;16.10;8.13;;;;;;;;;;4944719;28;20035;-70
2022/03/28 07:15:43;;;;;;;14.32;7.80;;;;;;;;;;4945166;28;20038;-68
2022/03/28 07:18:09;;;;;;;20.50;7.45;;;;;;;;;;4945597;29;20049;-68
2022/03/28 07:20:36;;;;;;;15.80;7.68;;;;;;;;;;4945514;29;20959;-69
2022/03/28 07:23:03;;;;;;;13.90;8.10;;;;;;;;;;4944709;28;20035;-69
2022/03/28 07:25:29;;;;;;;12.68;8.00;;;;;;;;;;4945660;28;20039;-69
2022/03/28 07:27:54;;;;;;;12.15;7.57;;;;;;;;;;4945001;29;20106;-69
2022/03/28 07:30:21;;;;;;;12.73;8.20;;;;;;;;;;4945504;29;20043;-69
2022/03/28 07:32:47;;;;;;;16.05;8.50;;;;;;;;;;4945057;29;20142;-71
2022/03/28 07:35:15;;;;;;;14.30;7.80;;;;;;;;;;4944585;28;20031;-71
2022/03/28 07:37:41;;;;;;;14.65;7.53;;;;;;;;;;4945262;28;20500;-70
2022/03/28 07:40:08;;;;;;;11.73;7.68;;;;;;;;;;4944991;29;20125;-70
2022/03/28 07:42:34;;;;;;;10.93;7.90;;;;;;;;;;4943669;29;20041;-70
2022/03/28 07:45:01;;;;;;;10.70;7.40;;;;;;;;;;4944374;28;20031;-69
2022/03/28 07:47:27;;;;;;;12.73;7.53;;;;;;;;;;4944663;28;20497;-70
2022/03/28 07:49:53;;;;;;;10.93;7.53;;;;;;;;;;4944414;28;20523;-69
2022/03/28 07:52:19;;;;;;;8.75;6.88;;;;;;;;;;4945141;29;20074;-70
2022/03/28 07:54:45;;;;;;;13.43;7.72;;;;;;;;;;4945514;29;20046;-70
2022/03/28 07:57:13;;;;;;;16.20;8.02;;;;;;;;;;4944060;28;20114;-70
2022/03/28 07:59:39;;;;;;;14.32;8.48;;;;;;;;;;4944475;28;20031;-70
2022/03/28 08:02:05;;;;;;;13.07;8.07;;;;;;;;;;4927120;29;20043;-70
2022/03/28 08:04:31;;;;;;;13.05;8.98;;;;;;;;;;4945035;29;20122;-71
2022/03/28 08:06:57;;;;;;;14.00;7.82;;;;;;;;;;4944100;28;20428;-70
2022/03/28 08:09:22;;;;;;;17.00;9.45;;;;;;;;;;4944535;28;20039;-70
2022/03/28 08:11:47;;;;;;;13.93;8.00;;;;;;;;;;4927285;29;20448;-70
2022/03/28 08:14:13;;;;;;;16.13;8.25;;;;;;;;;;4944659;29;20039;-69
2022/03/28 08:16:38;;;;;;;18.50;8.77;;;;;;;;;;4944731;29;20063;-69
2022/03/28 08:19:04;;;;;;;16.60;7.97;;;;;;;;;;4943442;28;20078;-71
2022/03/28 08:21:30;;;;;;;20.27;9.20;;;;;;;;;;4926545;29;20050;-71
2022/03/28 08:23:55;;;;;;;18.33;8.82;;;;;;;;;;4927294;29;20563;-69
2022/03/28 08:26:21;;;;;;;16.30;8.35;;;;;;;;;;4944073;29;20035;-69
2022/03/28 08:28:46;;;;;;;17.67;7.70;;;;;;;;;;4943726;28;20138;-69
2022/03/28 08:31:12;;;;;;;13.32;8.18;;;;;;;;;;4943431;28;20042;-69
2022/03/28 08:33:38;;;;;;;14.75;8.00;;;;;;;;;;4943897;29;20035;-69
2022/03/28 08:36:04;;;;;;;12.30;8.32;;;;;;;;;;4944166;29;20062;-69
2022/03/28 08:38:31;;;;;;;14.60;8.48;;;;;;;;;;4944544;29;20090;-70
2022/03/28 08:40:57;;;;;;;14.20;8.18;;;;;;;;;;4943094;28;21067;-69
2022/03/28 08:43:24;;;;;;;12.88;7.65;;;;;;;;;;4943614;28;20039;-69
2022/03/28 08:45:50;;;;;;;11.35;7.93;;;;;;;;;;4944054;29;20043;-70
2022/03/28 08:48:16;;;;;;;12.77;8.02;;;;;;;;;;4943722;29;20019;-69
2022/03/28 08:50:49;;;;;;;15.20;8.30;;;;;;;;;;4943370;29;20539;-69
2022/03/28 08:53:16;;;;;;;13.80;8.57;;;;;;;;;;4943139;28;20444;-68
2022/03/28 08:55:42;;;;;;;14.43;8.38;;;;;;;;;;4944209;29;21130;-70
2022/03/28 08:58:09;;;;;;;20.30;8.80;;;;;;;;;;4944331;29;20468;-68
2022/03/28 09:00:34;;;;;;;13.65;8.68;;;;;;;;;;4942720;28;20050;-68
2022/03/28 09:03:00;;;;;;;15.35;8.65;;;;;;;;;;4942807;28;20046;-69
2022/03/28 09:05:49;;;;;;;15.55;8.50;;;;;;;;;;4944020;28;20055;-69
2022/03/28 09:08:15;;;;;;;12.95;8.15;;;;;;;;;;4926782;29;20864;-70
2022/03/28 09:10:46;;;;;;;15.10;8.30;;;;;;;;;;4943874;29;20031;-71
2022/03/28 09:13:16;;;;;;;15.13;8.35;;;;;;;;;;4925324;29;20524;-70
2022/03/28 09:15:57;;;;;;;11.65;7.72;;;;;;;;;;4943861;28;20126;-70
2022/03/28 09:18:43;;;;;;;12.88;8.00;;;;;;;;;;4943665;29;20479;-70
2022/03/28 09:21:14;;;;;;;19.80;8.52;;;;;;;;;;4943640;29;20107;-70
2022/03/28 09:23:44;;;;;;;14.48;8.95;;;;;;;;;;4942533;29;20050;-69
2022/03/28 09:26:24;;;;;;;15.60;8.65;;;;;;;;;;4943053;28;20539;-70
2022/03/28 09:28:53;;;;;;;14.98;8.70;;;;;;;;;;4942988;29;20061;-70
2022/03/28 09:31:39;;;;;;;18.65;8.80;;;;;;;;;;4925344;29;20121;-69
2022/03/28 09:34:11;;;;;;;14.95;8.02;;;;;;;;;;4941598;29;20129;-70
2022/03/28 09:36:36;;;;;;;21.77;8.70;;;;;;;;;;4941142;28;20034;-70
2022/03/28 09:39:04;;;;;;;14.30;8.60;;;;;;;;;;4941222;28;20043;-69
2022/03/28 09:41:30;;;;;;;16.55;8.20;;;;;;;;;;4941478;29;20035;-69
2022/03/28 09:43:56;;;;;;;15.07;8.05;;;;;;;;;;4941396;29;20074;-70
2022/03/28 09:46:29;;;;;;;12.63;8.73;;;;;;;;;;4940265;28;20082;-70
2022/03/28 09:48:57;;;;;;;11.95;8.10;;;;;;;;;;4942783;28;20066;-70
2022/03/28 09:51:26;;;;;;;13.55;8.48;;;;;;;;;;4943003;29;20057;-70
2022/03/28 09:53:51;;;;;;;14.50;9.23;;;;;;;;;;4942790;29;20559;-69
2022/03/28 09:56:18;;;;;;;15.18;8.50;;;;;;;;;;4948337;29;20035;-70
2022/03/28 09:59:01;;;;;;;15.15;8.60;;;;;;;;;;4951063;28;20299;-69
2022/03/28 10:01:30;;;;;;;10.40;7.88;;;;;;;;;;4944430;28;20543;-70
2022/03/28 10:04:03;;;;;;;16.52;8.40;;;;;;;;;;4942652;29;20066;-70
2022/03/28 10:06:29;;;;;;;16.88;8.55;;;;;;;;;;4942887;29;20067;-69
2022/03/28 10:08:54;;;;;;;13.68;9.02;;;;;;;;;;4941933;28;20051;-70
2022/03/28 10:11:20;;;;;;;15.15;8.32;;;;;;;;;;4942947;28;20122;-70
2022/03/28 10:13:46;;;;;;;12.77;8.20;;;;;;;;;;4946185;29;20043;-70
2022/03/28 10:16:12;;;;;;;16.35;9.25;;;;;;;;;;4946614;29;20039;-69
2022/03/28 10:18:40;;;;;;;14.75;7.82;;;;;;;;;;4945920;29;20028;-70
2022/03/28 10:21:23;;;;;;;20.08;8.38;;;;;;;;;;4946687;28;20069;-69
2022/03/28 10:23:56;;;;;;;14.65;8.38;;;;;;;;;;4946667;29;20127;-69
2022/03/28 10:26:28;;;;;;;14.07;8.98;;;;;;;;;;4929221;29;20066;-69
2022/03/28 10:29:11;;;;;;;16.55;8.43;;;;;;;;;;4946295;29;20416;-69
2022/03/28 10:31:55;;;;;;;14.15;8.05;;;;;;;;;;4946325;28;20039;-69
2022/03/28 10:34:42;;;;;;;14.65;8.57;;;;;;;;;;4946442;29;20050;-69
2022/03/28 10:37:25;;;;;;;12.93;8.60;;;;;;;;;;4946549;29;20094;-69
2022/03/28 10:40:12;;;;;;;18.80;8.95;;;;;;;;;;4945610;29;20063;-68
2022/03/28 10:42:48;;;;;;;17.40;9.18;;;;;;;;;;4945855;28;20496;-69
2022/03/28 10:45:19;;;;;;;16.30;9.32;;;;;;;;;;4946552;29;20090;-68
2022/03/28 10:47:56;;;;;;;13.52;9.52;;;;;;;;;;4946365;29;20086;-69
2022/03/28 10:50:50;;;;;;;19.20;9.40;;;;;;;;;;4945667;29;20039;-69
2022/03/28 10:53:40;;;;;;;17.33;9.32;;;;;;;;;;4945032;28;20074;-69
2022/03/28 10:56:20;;;;;;;17.50;9.70;;;;;;;;;;4945599;28;20044;-69
2022/03/28 10:58:52;;;;;;;14.23;10.10;;;;;;;;;;4946194;29;20504;-69
2022/03/28 11:01:21;;;;;;;16.73;9.55;;;;;;;;;;4943840;28;20399;-68
2022/03/28 11:04:05;;;;;;;16.42;9.95;;;;;;;;;;4944441;28;20039;-69
2022/03/28 11:06:49;;;;;;;16.67;9.48;;;;;;;;;;4943708;28;20124;-69
2022/03/28 11:09:32;;;;;;;26.27;10.48;;;;;;;;;;4943675;28;20042;-70
2022/03/28 11:12:00;;;;;;;15.68;9.88;;;;;;;;;;4944305;28;20035;-69
2022/03/28 11:14:51;;;;;;;15.18;10.57;;;;;;;;;;4945728;28;20047;-69
2022/03/28 11:17:28;;;;;;;17.30;9.77;;;;;;;;;;4945654;29;20041;-68
2022/03/28 11:20:07;;;;;;;17.38;10.13;;;;;;;;;;4945960;29;20050;-69
2022/03/28 11:22:47;;;;;;;17.15;9.57;;;;;;;;;;4944581;28;20035;-69
2022/03/28 11:25:33;;;;;;;15.43;9.70;;;;;;;;;;4944871;28;20028;-69
2022/03/28 11:28:03;;;;;;;16.88;10.18;;;;;;;;;;4928225;29;20062;-70
2022/03/28 11:30:28;;;;;;;12.75;9.20;;;;;;;;;;4945311;29;20070;-70
2022/03/28 11:32:54;;;;;;;24.65;11.02;;;;;;;;;;4944151;28;20050;-70
2022/03/28 11:35:20;;;;;;;16.23;11.00;;;;;;;;;;4928064;29;20210;-72
2022/03/28 11:37:48;;;;;;;37.42;10.30;;;;;;;;;;4945223;29;20122;-70
2022/03/28 11:40:13;;;;;;;18.42;10.02;;;;;;;;;;4928210;29;20118;-69
2022/03/28 11:42:45;;;;;;;20.15;10.43;;;;;;;;;;4944673;29;20114;-70
2022/03/28 11:45:13;;;;;;;16.23;10.68;;;;;;;;;;4944234;28;20031;-71
2022/03/28 11:47:48;;;;;;;18.70;11.07;;;;;;;;;;4944905;28;20094;-71
2022/03/28 11:50:14;;;;;;;17.45;10.80;;;;;;;;;;4944889;29;20102;-69
2022/03/28 11:52:40;;;;;;;16.25;10.73;;;;;;;;;;4944994;29;20172;-72
2022/03/28 11:55:18;;;;;;;18.13;10.77;;;;;;;;;;4925424;28;20481;-73
2022/03/28 12:00:32;;;;;;;16.40;10.82;;;;;;;;;;4944752;29;20043;-71
2022/03/28 12:02:59;;;;;;;19.15;10.60;;;;;;;;;;4943726;29;20039;-70
2022/03/28 12:05:29;;;;;;;16.60;10.75;;;;;;;;;;4943762;29;20046;-70
2022/03/28 12:07:55;;;;;;;13.75;9.15;;;;;;;;;;4944315;28;20039;-70
2022/03/28 12:10:32;;;;;;;17.55;9.68;;;;;;;;;;4944852;28;20042;-70
2022/03/28 12:12:59;;;;;;;16.33;10.57;;;;;;;;;;4944079;29;20038;-70
2022/03/28 12:15:27;;;;;;;20.05;11.30;;;;;;;;;;4944155;29;21301;-70
2022/03/28 12:17:54;;;;;;;15.57;10.07;;;;;;;;;;4943842;28;20075;-70
2022/03/28 12:20:25;;;;;;;18.30;11.30;;;;;;;;;;4944217;28;20042;-70
2022/03/28 12:22:51;;;;;;;20.70;12.18;;;;;;;;;;4944333;29;20122;-69
2022/03/28 12:25:28;;;;;;;18.88;11.43;;;;;;;;;;4943381;29;20121;-70
2022/03/28 12:27:56;;;;;;;20.00;11.02;;;;;;;;;;4943230;28;20448;-70
2022/03/28 12:30:41;;;;;;;15.40;10.00;;;;;;;;;;4925954;29;20043;-69
2022/03/28 12:33:12;;;;;;;18.30;10.60;;;;;;;;;;4941752;29;20532;-69
2022/03/28 12:35:44;;;;;;;21.75;11.18;;;;;;;;;;4942296;28;20039;-69
2022/03/28 12:38:15;;;;;;;19.52;9.93;;;;;;;;;;4941470;28;20035;-69
2022/03/28 12:40:44;;;;;;;19.77;9.93;;;;;;;;;;4924934;29;20444;-69
2022/03/28 12:43:11;;;;;;;14.98;9.63;;;;;;;;;;4941993;29;20062;-69
2022/03/28 12:45:38;;;;;;;18.55;9.90;;;;;;;;;;4942619;29;20030;-69
2022/03/28 12:48:08;;;;;;;17.77;10.30;;;;;;;;;;4942860;29;21099;-68
2022/03/28 12:50:35;;;;;;;20.77;10.18;;;;;;;;;;4942520;28;20071;-70
2022/03/28 12:53:11;;;;;;;21.52;13.07;;;;;;;;;;4943305;28;20047;-70
2022/03/28 12:55:38;;;;;;;20.70;10.63;;;;;;;;;;4943064;29;20067;-69
2022/03/28 12:58:04;;;;;;;13.63;9.23;;;;;;;;;;4943332;29;20118;-67
2022/03/28 13:00:31;;;;;;;22.10;9.55;;;;;;;;;;4942524;29;20143;-69
2022/03/28 13:03:01;;;;;;;18.05;10.32;;;;;;;;;;4942623;28;20688;-68
2022/03/28 13:05:28;;;;;;;15.80;11.20;;;;;;;;;;4942763;29;20031;-70
2022/03/28 13:08:01;;;;;;;14.55;10.55;;;;;;;;;;4943139;29;20055;-70
2022/03/28 13:10:27;;;;;;;20.88;12.25;;;;;;;;;;4942912;29;21134;-69
2022/03/28 13:12:57;;;;;;;21.02;11.50;;;;;;;;;;4940455;28;20043;-69
2022/03/28 13:15:26;;;;;;;21.23;11.48;;;;;;;;;;4942609;28;20053;-70
2022/03/28 13:18:11;;;;;;;22.38;11.50;;;;;;;;;;4943595;29;20038;-69
2022/03/28 13:20:39;;;;;;;24.48;11.35;;;;;;;;;;4942092;29;20065;-69
2022/03/28 13:23:19;;;;;;;15.05;10.02;;;;;;;;;;4942748;28;20276;-68
2022/03/28 13:25:45;;;;;;;20.90;10.18;;;;;;;;;;4942997;28;20039;-68
2022/03/28 13:28:15;;;;;;;15.35;11.23;;;;;;;;;;4943714;29;20369;-69
2022/03/28 13:30:40;;;;;;;19.88;11.40;;;;;;;;;;4943242;29;20035;-69
2022/03/28 13:33:06;;;;;;;17.80;11.05;;;;;;;;;;4941831;29;20035;-68
2022/03/28 13:35:33;;;;;;;20.00;11.82;;;;;;;;;;4940210;28;20052;-69
2022/03/28 13:38:00;;;;;;;14.82;9.90;;;;;;;;;;4941614;28;20035;-69
2022/03/28 13:40:28;;;;;;;20.90;9.80;;;;;;;;;;4940686;29;20035;-69
2022/03/28 13:42:54;;;;;;;13.38;9.18;;;;;;;;;;4936235;28;20049;-68
2022/03/28 13:45:20;;;;;;;14.20;8.63;;;;;;;;;;4940818;28;20031;-70
2022/03/28 13:47:46;;;;;;;13.75;8.48;;;;;;;;;;4940917;28;20154;-69
2022/03/28 13:50:12;;;;;;;19.17;10.88;;;;;;;;;;4939185;29;20041;-70
2022/03/28 13:52:37;;;;;;;17.58;10.50;;;;;;;;;;4941347;29;20035;-69
2022/03/28 13:55:03;;;;;;;19.23;10.30;;;;;;;;;;4941858;29;20089;-69
2022/03/28 13:57:29;;;;;;;18.20;9.98;;;;;;;;;;4939023;28;20046;-70
2022/03/28 13:59:54;;;;;;;15.85;9.40;;;;;;;;;;4941430;28;20047;-69
2022/03/28 14:02:20;;;;;;;14.00;8.95;;;;;;;;;;4937130;28;20035;-69
2022/03/28 14:04:46;;;;;;;19.77;9.50;;;;;;;;;;4942418;28;20523;-69
2022/03/28 14:07:11;;;;;;;19.95;9.20;;;;;;;;;;4940710;28;20031;-69
2022/03/28 14:09:37;;;;;;;13.90;9.50;;;;;;;;;;4942289;28;20822;-70
2022/03/28 14:12:03;;;;;;;16.77;9.38;;;;;;;;;;4942177;29;20516;-69
2022/03/28 14:14:28;;;;;;;20.70;9.85;;;;;;;;;;4942986;29;20038;-69
2022/03/28 14:16:54;;;;;;;19.15;9.75;;;;;;;;;;4943235;29;20975;-70
2022/03/28 14:19:21;;;;;;;16.67;9.63;;;;;;;;;;4944418;28;20133;-69
2022/03/28 14:21:46;;;;;;;15.65;9.63;;;;;;;;;;4950089;29;20027;-70
2022/03/28 14:24:12;;;;;;;16.15;10.38;;;;;;;;;;4950684;29;20046;-69
2022/03/28 14:26:38;;;;;;;15.15;8.77;;;;;;;;;;4929390;29;20050;-69
2022/03/28 14:29:03;;;;;;;16.60;9.18;;;;;;;;;;4926992;28;20047;-69
2022/03/28 14:31:29;;;;;;;15.90;9.05;;;;;;;;;;4943323;28;20031;-69
2022/03/28 14:33:55;;;;;;;13.82;9.65;;;;;;;;;;4942414;29;20046;-69